sensor_id;sensor_type;location;lat;lon;timestamp;pressure;altitude;pressure_sealevel;temperature;humidity
68758;BME280;55747;51.998;4.466;2023-05-11T00:01:24;56709.41;;;-144.48;100.00
68758;BME280;55747;51.998;4.466;2023-05-11T00:03:49;56684.59;;;-144.48;100.00
68758;BME280;55747;51.998;4.466;2023-05-11T00:06:14;56692.88;;;-144.48;100.00
68758;BME280;55747;51.998;4.466;2023-05-11T00:08:40;56694.94;;;-144.48;100.00
68758;BME280;55747;51.998;4.466;2023-05-11T00:11:08;56674.25;;;-144.48;100.00
68758;BME280;55747;51.998;4.466;2023-05-11T00:13:33;56701.13;;;-144.48;100.00
68758;BME280;55747;51.998;4.466;2023-05-11T00:15:58;56715.59;;;-144.48;100.00
68758;BME280;55747;51.998;4.466;2023-05-11T00:18:23;56680.47;;;-144.48;100.00
68758;BME280;55747;51.998;4.466;2023-05-11T00:20:49;56692.88;;;-144.48;100.00
68758;BME280;55747;51.998;4.466;2023-05-11T00:23:14;56674.25;;;-144.48;100.00
68758;BME280;55747;51.998;4.466;2023-05-11T00:25:39;56730.09;;;-144.48;100.00
68758;BME280;55747;51.998;4.466;2023-05-11T00:28:04;56680.47;;;-144.48;100.00
68758;BME280;55747;51.998;4.466;2023-05-11T00:30:30;56701.13;;;-144.48;100.00
68758;BME280;55747;51.998;4.466;2023-05-11T00:32:55;56705.28;;;-144.48;100.00
68758;BME280;55747;51.998;4.466;2023-05-11T00:35:21;56684.59;;;-144.48;100.00
68758;BME280;55747;51.998;4.466;2023-05-11T00:37:46;56678.41;;;-144.48;100.00
68758;BME280;55747;51.998;4.466;2023-05-11T00:40:11;56684.59;;;-144.48;100.00
68758;BME280;55747;51.998;4.466;2023-05-11T00:42:37;56676.31;;;-144.48;100.00
68758;BME280;55747;51.998;4.466;2023-05-11T00:45:02;56676.31;;;-144.48;100.00
68758;BME280;55747;51.998;4.466;2023-05-11T00:47:27;56684.59;;;-144.48;100.00
68758;BME280;55747;51.998;4.466;2023-05-11T00:49:52;56709.41;;;-144.48;100.00
68758;BME280;55747;51.998;4.466;2023-05-11T00:52:18;56674.25;;;-144.48;100.00
68758;BME280;55747;51.998;4.466;2023-05-11T00:54:43;56694.94;;;-144.48;100.00
68758;BME280;55747;51.998;4.466;2023-05-11T00:57:09;56703.19;;;-144.48;100.00
68758;BME280;55747;51.998;4.466;2023-05-11T00:59:35;56699.06;;;-144.48;100.00
68758;BME280;55747;51.998;4.466;2023-05-11T01:02:01;56719.75;;;-144.48;100.00
68758;BME280;55747;51.998;4.466;2023-05-11T01:04:26;56694.94;;;-144.48;100.00
68758;BME280;55747;51.998;4.466;2023-05-11T01:12:26;56707.34;;;-144.48;100.00
68758;BME280;55747;51.998;4.466;2023-05-11T01:14:59;56647.38;;;-144.48;100.00
68758;BME280;55747;51.998;4.466;2023-05-11T01:17:31;56686.66;;;-144.48;100.00
68758;BME280;55747;51.998;4.466;2023-05-11T01:20:01;56705.28;;;-144.48;100.00
68758;BME280;55747;51.998;4.466;2023-05-11T01:25:16;56709.41;;;-144.48;100.00
68758;BME280;55747;51.998;4.466;2023-05-11T01:28:06;56678.41;;;-144.48;100.00
68758;BME280;55747;51.998;4.466;2023-05-11T01:30:47;56721.81;;;-144.48;100.00
68758;BME280;55747;51.998;4.466;2023-05-11T01:33:13;56705.28;;;-144.48;100.00
68758;BME280;55747;51.998;4.466;2023-05-11T01:35:44;56688.72;;;-144.48;100.00
68758;BME280;55747;51.998;4.466;2023-05-11T01:38:12;56688.72;;;-144.48;100.00
68758;BME280;55747;51.998;4.466;2023-05-11T01:40:38;56688.72;;;-144.48;100.00
68758;BME280;55747;51.998;4.466;2023-05-11T01:43:07;56672.19;;;-144.48;100.00
68758;BME280;55747;51.998;4.466;2023-05-11T01:45:35;56688.72;;;-144.48;100.00
68758;BME280;55747;51.998;4.466;2023-05-11T01:48:03;56670.13;;;-144.48;100.00
68758;BME280;55747;51.998;4.466;2023-05-11T01:50:29;56682.53;;;-144.48;100.00
68758;BME280;55747;51.998;4.466;2023-05-11T01:52:56;56709.41;;;-144.48;100.00
68758;BME280;55747;51.998;4.466;2023-05-11T01:55:22;56707.34;;;-144.48;100.00
68758;BME280;55747;51.998;4.466;2023-05-11T01:57:49;56672.19;;;-144.48;100.00
68758;BME280;55747;51.998;4.466;2023-05-11T02:00:15;56676.31;;;-144.48;100.00
68758;BME280;55747;51.998;4.466;2023-05-11T02:02:41;56715.59;;;-144.48;100.00
68758;BME280;55747;51.998;4.466;2023-05-11T02:05:08;56709.41;;;-144.48;100.00
68758;BME280;55747;51.998;4.466;2023-05-11T02:07:35;56686.66;;;-144.48;100.00
68758;BME280;55747;51.998;4.466;2023-05-11T02:10:02;56699.06;;;-144.48;100.00
68758;BME280;55747;51.998;4.466;2023-05-11T02:12:27;56690.81;;;-144.48;100.00
68758;BME280;55747;51.998;4.466;2023-05-11T02:14:53;56668.06;;;-144.48;100.00
68758;BME280;55747;51.998;4.466;2023-05-11T02:17:20;56688.72;;;-144.48;100.00
68758;BME280;55747;51.998;4.466;2023-05-11T02:19:46;56682.53;;;-144.48;100.00
68758;BME280;55747;51.998;4.466;2023-05-11T02:22:12;56699.06;;;-144.48;100.00
68758;BME280;55747;51.998;4.466;2023-05-11T02:24:37;56705.28;;;-144.48;100.00
68758;BME280;55747;51.998;4.466;2023-05-11T02:27:02;56707.34;;;-144.48;100.00
68758;BME280;55747;51.998;4.466;2023-05-11T02:29:28;56705.28;;;-144.48;100.00
68758;BME280;55747;51.998;4.466;2023-05-11T02:32:02;56694.94;;;-144.48;100.00
68758;BME280;55747;51.998;4.466;2023-05-11T02:34:32;56723.88;;;-144.48;100.00
68758;BME280;55747;51.998;4.466;2023-05-11T02:36:59;56719.75;;;-144.48;100.00
68758;BME280;55747;51.998;4.466;2023-05-11T02:39:29;56676.31;;;-144.48;100.00
68758;BME280;55747;51.998;4.466;2023-05-11T02:41:57;56711.47;;;-144.48;100.00
68758;BME280;55747;51.998;4.466;2023-05-11T02:44:26;56684.59;;;-144.48;100.00
68758;BME280;55747;51.998;4.466;2023-05-11T02:46:52;56715.59;;;-144.48;100.00
68758;BME280;55747;51.998;4.466;2023-05-11T02:49:20;56705.28;;;-144.48;100.00
68758;BME280;55747;51.998;4.466;2023-05-11T02:51:46;56703.19;;;-144.48;100.00
68758;BME280;55747;51.998;4.466;2023-05-11T02:54:12;56717.69;;;-144.48;100.00
68758;BME280;55747;51.998;4.466;2023-05-11T02:56:39;56690.81;;;-144.48;100.00
68758;BME280;55747;51.998;4.466;2023-05-11T02:59:05;56682.53;;;-144.48;100.00
68758;BME280;55747;51.998;4.466;2023-05-11T03:01:30;56692.88;;;-144.48;100.00
68758;BME280;55747;51.998;4.466;2023-05-11T03:03:55;56682.53;;;-144.48;100.00
68758;BME280;55747;51.998;4.466;2023-05-11T03:06:20;56680.47;;;-144.48;100.00
68758;BME280;55747;51.998;4.466;2023-05-11T03:08:46;56732.16;;;-144.48;100.00
68758;BME280;55747;51.998;4.466;2023-05-11T03:11:11;56697.00;;;-144.48;100.00
68758;BME280;55747;51.998;4.466;2023-05-11T03:13:38;56728.00;;;-144.48;100.00
68758;BME280;55747;51.998;4.466;2023-05-11T03:16:04;56686.66;;;-144.48;100.00
68758;BME280;55747;51.998;4.466;2023-05-11T03:18:30;56682.53;;;-144.48;100.00
68758;BME280;55747;51.998;4.466;2023-05-11T03:20:57;56692.88;;;-144.48;100.00
68758;BME280;55747;51.998;4.466;2023-05-11T03:23:23;56682.53;;;-144.48;100.00
68758;BME280;55747;51.998;4.466;2023-05-11T03:25:48;56730.09;;;-144.48;100.00
68758;BME280;55747;51.998;4.466;2023-05-11T03:28:14;56666.00;;;-144.48;100.00
68758;BME280;55747;51.998;4.466;2023-05-11T03:30:39;56694.94;;;-144.48;100.00
68758;BME280;55747;51.998;4.466;2023-05-11T03:33:07;56688.72;;;-144.48;100.00
68758;BME280;55747;51.998;4.466;2023-05-11T03:35:32;56717.69;;;-144.48;100.00
68758;BME280;55747;51.998;4.466;2023-05-11T03:37:58;56725.94;;;-144.48;100.00
68758;BME280;55747;51.998;4.466;2023-05-11T03:40:24;56694.94;;;-144.48;100.00
68758;BME280;55747;51.998;4.466;2023-05-11T03:42:52;56705.28;;;-144.48;100.00
68758;BME280;55747;51.998;4.466;2023-05-11T03:45:18;56688.72;;;-144.48;100.00
68758;BME280;55747;51.998;4.466;2023-05-11T03:47:45;56759.03;;;-144.48;100.00
68758;BME280;55747;51.998;4.466;2023-05-11T03:50:11;56709.41;;;-144.48;100.00
68758;BME280;55747;51.998;4.466;2023-05-11T03:52:37;56742.50;;;-144.48;100.00
68758;BME280;55747;51.998;4.466;2023-05-11T03:55:02;56672.19;;;-144.48;100.00
68758;BME280;55747;51.998;4.466;2023-05-11T03:57:28;56721.81;;;-144.48;100.00
68758;BME280;55747;51.998;4.466;2023-05-11T03:59:53;56705.28;;;-144.48;100.00
68758;BME280;55747;51.998;4.466;2023-05-11T04:02:18;56709.41;;;-144.48;100.00
68758;BME280;55747;51.998;4.466;2023-05-11T04:04:44;56715.59;;;-144.48;100.00
68758;BME280;55747;51.998;4.466;2023-05-11T04:07:09;56761.09;;;-144.48;100.00
68758;BME280;55747;51.998;4.466;2023-05-11T04:09:34;56697.00;;;-144.48;100.00
68758;BME280;55747;51.998;4.466;2023-05-11T04:12:00;56721.81;;;-144.48;100.00
68758;BME280;55747;51.998;4.466;2023-05-11T04:14:25;56663.91;;;-144.48;100.00
68758;BME280;55747;51.998;4.466;2023-05-11T04:16:50;56713.53;;;-144.48;100.00
68758;BME280;55747;51.998;4.466;2023-05-11T04:19:15;56719.75;;;-144.48;100.00
68758;BME280;55747;51.998;4.466;2023-05-11T04:21:40;56748.69;;;-144.48;100.00
68758;BME280;55747;51.998;4.466;2023-05-11T04:24:06;56723.88;;;-144.48;100.00
68758;BME280;55747;51.998;4.466;2023-05-11T04:26:31;56740.41;;;-144.48;100.00
68758;BME280;55747;51.998;4.466;2023-05-11T04:28:56;56732.16;;;-144.48;100.00
68758;BME280;55747;51.998;4.466;2023-05-11T04:31:21;56682.53;;;-144.48;100.00
68758;BME280;55747;51.998;4.466;2023-05-11T04:33:47;56711.47;;;-144.48;100.00
68758;BME280;55747;51.998;4.466;2023-05-11T04:36:12;56686.66;;;-144.48;100.00
68758;BME280;55747;51.998;4.466;2023-05-11T04:38:37;56694.94;;;-144.48;100.00
68758;BME280;55747;51.998;4.466;2023-05-11T04:41:03;56701.13;;;-144.48;100.00
68758;BME280;55747;51.998;4.466;2023-05-11T04:43:29;56709.41;;;-144.48;100.00
68758;BME280;55747;51.998;4.466;2023-05-11T04:45:54;56705.28;;;-144.48;100.00
68758;BME280;55747;51.998;4.466;2023-05-11T04:48:19;56699.06;;;-144.48;100.00
68758;BME280;55747;51.998;4.466;2023-05-11T04:50:44;56663.91;;;-144.48;100.00
68758;BME280;55747;51.998;4.466;2023-05-11T04:53:10;56670.13;;;-144.48;100.00
68758;BME280;55747;51.998;4.466;2023-05-11T04:55:35;56717.69;;;-144.48;100.00
68758;BME280;55747;51.998;4.466;2023-05-11T04:58:00;56680.47;;;-144.48;100.00
68758;BME280;55747;51.998;4.466;2023-05-11T05:00:25;56746.63;;;-144.48;100.00
68758;BME280;55747;51.998;4.466;2023-05-11T05:02:50;56699.06;;;-144.48;100.00
68758;BME280;55747;51.998;4.466;2023-05-11T05:05:16;56740.41;;;-144.48;100.00
68758;BME280;55747;51.998;4.466;2023-05-11T05:07:41;56736.28;;;-144.48;100.00
68758;BME280;55747;51.998;4.466;2023-05-11T05:10:06;56730.09;;;-144.48;100.00
68758;BME280;55747;51.998;4.466;2023-05-11T05:12:34;56705.28;;;-144.48;100.00
68758;BME280;55747;51.998;4.466;2023-05-11T05:14:59;56713.53;;;-144.48;100.00
68758;BME280;55747;51.998;4.466;2023-05-11T05:17:24;56686.66;;;-144.48;100.00
68758;BME280;55747;51.998;4.466;2023-05-11T05:19:50;56692.88;;;-144.48;100.00
68758;BME280;55747;51.998;4.466;2023-05-11T05:22:15;56715.59;;;-144.48;100.00
68758;BME280;55747;51.998;4.466;2023-05-11T05:24:40;56697.00;;;-144.48;100.00
68758;BME280;55747;51.998;4.466;2023-05-11T05:27:05;56736.28;;;-144.48;100.00
68758;BME280;55747;51.998;4.466;2023-05-11T05:29:30;56707.34;;;-144.48;100.00
68758;BME280;55747;51.998;4.466;2023-05-11T05:31:56;56725.94;;;-144.48;100.00
68758;BME280;55747;51.998;4.466;2023-05-11T05:34:23;56699.06;;;-144.48;100.00
68758;BME280;55747;51.998;4.466;2023-05-11T05:36:48;56730.09;;;-144.48;100.00
68758;BME280;55747;51.998;4.466;2023-05-11T05:39:14;56699.06;;;-144.48;100.00
68758;BME280;55747;51.998;4.466;2023-05-11T05:41:39;56668.06;;;-144.48;100.00
68758;BME280;55747;51.998;4.466;2023-05-11T05:44:06;56715.59;;;-144.48;100.00
68758;BME280;55747;51.998;4.466;2023-05-11T05:46:31;56725.94;;;-144.48;100.00
68758;BME280;55747;51.998;4.466;2023-05-11T05:48:56;56703.19;;;-144.48;100.00
68758;BME280;55747;51.998;4.466;2023-05-11T05:51:22;56717.69;;;-144.48;100.00
68758;BME280;55747;51.998;4.466;2023-05-11T05:53:47;56694.94;;;-144.48;100.00
68758;BME280;55747;51.998;4.466;2023-05-11T05:56:12;56705.28;;;-144.48;100.00
68758;BME280;55747;51.998;4.466;2023-05-11T05:58:37;56655.66;;;-144.48;100.00
68758;BME280;55747;51.998;4.466;2023-05-11T06:01:02;56713.53;;;-144.48;100.00
68758;BME280;55747;51.998;4.466;2023-05-11T06:03:28;56703.19;;;-144.48;100.00
68758;BME280;55747;51.998;4.466;2023-05-11T06:05:53;56725.94;;;-144.48;100.00
68758;BME280;55747;51.998;4.466;2023-05-11T06:08:18;56670.13;;;-144.48;100.00
68758;BME280;55747;51.998;4.466;2023-05-11T06:10:44;56730.09;;;-144.48;100.00
68758;BME280;55747;51.998;4.466;2023-05-11T06:13:10;56680.47;;;-144.48;100.00
68758;BME280;55747;51.998;4.466;2023-05-11T06:15:37;56709.41;;;-144.48;100.00
68758;BME280;55747;51.998;4.466;2023-05-11T06:18:03;56699.06;;;-144.48;100.00
68758;BME280;55747;51.998;4.466;2023-05-11T06:20:30;56703.19;;;-144.48;100.00
68758;BME280;55747;51.998;4.466;2023-05-11T06:22:57;56709.41;;;-144.48;100.00
68758;BME280;55747;51.998;4.466;2023-05-11T06:25:22;56707.34;;;-144.48;100.00
68758;BME280;55747;51.998;4.466;2023-05-11T06:27:48;56672.19;;;-144.48;100.00
68758;BME280;55747;51.998;4.466;2023-05-11T06:30:13;56703.19;;;-144.48;100.00
68758;BME280;55747;51.998;4.466;2023-05-11T06:32:38;56694.94;;;-144.48;100.00
68758;BME280;55747;51.998;4.466;2023-05-11T06:35:03;56707.34;;;-144.48;100.00
68758;BME280;55747;51.998;4.466;2023-05-11T06:37:29;56692.88;;;-144.48;100.00
68758;BME280;55747;51.998;4.466;2023-05-11T06:39:54;56692.88;;;-144.48;100.00
68758;BME280;55747;51.998;4.466;2023-05-11T06:42:20;56684.59;;;-144.48;100.00
68758;BME280;55747;51.998;4.466;2023-05-11T06:44:47;56705.28;;;-144.48;100.00
68758;BME280;55747;51.998;4.466;2023-05-11T06:47:12;56670.13;;;-144.48;100.00
68758;BME280;55747;51.998;4.466;2023-05-11T06:49:38;56690.81;;;-144.48;100.00
68758;BME280;55747;51.998;4.466;2023-05-11T06:52:03;56721.81;;;-144.48;100.00
68758;BME280;55747;51.998;4.466;2023-05-11T06:54:28;56707.34;;;-144.48;100.00
68758;BME280;55747;51.998;4.466;2023-05-11T06:56:54;56723.88;;;-144.48;100.00
68758;BME280;55747;51.998;4.466;2023-05-11T06:59:19;56709.41;;;-144.48;100.00
68758;BME280;55747;51.998;4.466;2023-05-11T07:01:44;56674.25;;;-144.48;100.00
68758;BME280;55747;51.998;4.466;2023-05-11T07:04:10;56728.00;;;-144.48;100.00
68758;BME280;55747;51.998;4.466;2023-05-11T07:06:35;56715.59;;;-144.48;100.00
68758;BME280;55747;51.998;4.466;2023-05-11T07:09:03;56707.34;;;-144.48;100.00
68758;BME280;55747;51.998;4.466;2023-05-11T07:11:29;56670.13;;;-144.48;100.00
68758;BME280;55747;51.998;4.466;2023-05-11T07:13:54;56690.81;;;-144.48;100.00
68758;BME280;55747;51.998;4.466;2023-05-11T07:16:20;56738.34;;;-144.48;100.00
68758;BME280;55747;51.998;4.466;2023-05-11T07:18:45;56674.25;;;-144.48;100.00
68758;BME280;55747;51.998;4.466;2023-05-11T07:21:10;56661.84;;;-144.48;100.00
68758;BME280;55747;51.998;4.466;2023-05-11T07:23:35;56657.72;;;-144.48;100.00
68758;BME280;55747;51.998;4.466;2023-05-11T07:26:01;56666.00;;;-144.48;100.00
68758;BME280;55747;51.998;4.466;2023-05-11T07:28:28;56678.41;;;-144.48;100.00
68758;BME280;55747;51.998;4.466;2023-05-11T07:30:53;56678.41;;;-144.48;100.00
68758;BME280;55747;51.998;4.466;2023-05-11T07:33:18;56666.00;;;-144.48;100.00
68758;BME280;55747;51.998;4.466;2023-05-11T07:35:43;56663.91;;;-144.48;100.00
68758;BME280;55747;51.998;4.466;2023-05-11T07:38:09;56694.94;;;-144.48;100.00
68758;BME280;55747;51.998;4.466;2023-05-11T07:40:35;56663.91;;;-144.48;100.00
68758;BME280;55747;51.998;4.466;2023-05-11T07:43:01;56678.41;;;-144.48;100.00
68758;BME280;55747;51.998;4.466;2023-05-11T07:45:26;56655.66;;;-144.48;100.00
68758;BME280;55747;51.998;4.466;2023-05-11T07:47:51;56651.50;;;-144.48;100.00
68758;BME280;55747;51.998;4.466;2023-05-11T07:50:17;56643.25;;;-144.48;100.00
68758;BME280;55747;51.998;4.466;2023-05-11T07:52:42;56659.78;;;-144.48;100.00
68758;BME280;55747;51.998;4.466;2023-05-11T07:55:08;56678.41;;;-144.48;100.00
68758;BME280;55747;51.998;4.466;2023-05-11T07:57:33;56655.66;;;-144.48;100.00
68758;BME280;55747;51.998;4.466;2023-05-11T07:59:58;56649.44;;;-144.48;100.00
68758;BME280;55747;51.998;4.466;2023-05-11T08:02:23;56608.09;;;-144.48;100.00
68758;BME280;55747;51.998;4.466;2023-05-11T08:04:49;56641.19;;;-144.48;100.00
68758;BME280;55747;51.998;4.466;2023-05-11T08:07:14;56616.38;;;-144.48;100.00
68758;BME280;55747;51.998;4.466;2023-05-11T08:09:39;56606.03;;;-144.48;99.08
68758;BME280;55747;51.998;4.466;2023-05-11T08:12:04;56639.13;;;-144.48;95.56
68758;BME280;55747;51.998;4.466;2023-05-11T08:14:30;56601.91;;;-144.48;96.32
68758;BME280;55747;51.998;4.466;2023-05-11T08:16:58;56630.84;;;-144.48;100.00
68758;BME280;55747;51.998;4.466;2023-05-11T08:19:24;56618.44;;;-144.48;100.00
68758;BME280;55747;51.998;4.466;2023-05-11T08:21:49;56670.13;;;-144.48;100.00
68758;BME280;55747;51.998;4.466;2023-05-11T08:24:14;56645.31;;;-144.48;100.00
68758;BME280;55747;51.998;4.466;2023-05-11T08:26:40;56643.25;;;-144.48;100.00
68758;BME280;55747;51.998;4.466;2023-05-11T08:29:06;56653.59;;;-144.48;100.00
68758;BME280;55747;51.998;4.466;2023-05-11T08:31:34;56668.06;;;-144.48;98.83
68758;BME280;55747;51.998;4.466;2023-05-11T08:33:59;56620.50;;;-144.48;100.00
68758;BME280;55747;51.998;4.466;2023-05-11T08:36:24;56622.56;;;-144.48;100.00
68758;BME280;55747;51.998;4.466;2023-05-11T08:38:49;56641.19;;;-144.48;96.19
68758;BME280;55747;51.998;4.466;2023-05-11T08:41:15;56614.31;;;-144.48;89.48
68758;BME280;55747;51.998;4.466;2023-05-11T08:43:40;56612.22;;;-144.48;80.35
68758;BME280;55747;51.998;4.466;2023-05-11T08:46:07;56624.63;;;-144.48;84.19
68758;BME280;55747;51.998;4.466;2023-05-11T08:48:35;56608.09;;;-144.48;84.19
68758;BME280;55747;51.998;4.466;2023-05-11T08:51:00;56612.22;;;-144.48;85.11
68758;BME280;55747;51.998;4.466;2023-05-11T08:53:28;56603.97;;;-144.48;83.93
68758;BME280;55747;51.998;4.466;2023-05-11T08:55:56;56618.44;;;-144.48;81.12
68758;BME280;55747;51.998;4.466;2023-05-11T08:58:25;56601.91;;;-144.48;77.85
68758;BME280;55747;51.998;4.466;2023-05-11T09:00:50;56587.41;;;-144.48;76.18
68758;BME280;55747;51.998;4.466;2023-05-11T09:03:16;56597.75;;;-144.48;69.66
68758;BME280;55747;51.998;4.466;2023-05-11T09:05:42;56572.94;;;-144.48;65.26
68758;BME280;55747;51.998;4.466;2023-05-11T09:08:09;56525.41;;;-144.48;56.19
68758;BME280;55747;51.998;4.466;2023-05-11T09:10:36;56525.41;;;-144.48;60.60
68758;BME280;55747;51.998;4.466;2023-05-11T09:13:04;56519.19;;;-144.48;54.37
68758;BME280;55747;51.998;4.466;2023-05-11T09:15:30;56496.44;;;-144.48;54.77
68758;BME280;55747;51.998;4.466;2023-05-11T09:17:55;56521.25;;;-144.48;60.30
68758;BME280;55747;51.998;4.466;2023-05-11T09:20:27;56556.41;;;-144.48;62.22
68758;BME280;55747;51.998;4.466;2023-05-11T09:22:54;56552.28;;;-144.48;66.08
68758;BME280;55747;51.998;4.466;2023-05-11T09:25:19;56558.47;;;-144.48;66.93
68758;BME280;55747;51.998;4.466;2023-05-11T09:27:48;56566.75;;;-144.48;72.12
68758;BME280;55747;51.998;4.466;2023-05-11T09:33:00;56587.41;;;-144.48;80.19
68758;BME280;55747;51.998;4.466;2023-05-11T09:35:25;56548.13;;;-144.48;80.16
68758;BME280;55747;51.998;4.466;2023-05-11T09:40:23;56599.81;;;-144.48;83.09
68758;BME280;55747;51.998;4.466;2023-05-11T09:42:51;56585.34;;;-144.48;88.01
68758;BME280;55747;51.998;4.466;2023-05-11T09:48:01;56610.16;;;-144.48;94.29
68758;BME280;55747;51.998;4.466;2023-05-11T09:50:30;56610.16;;;-144.48;96.63
68758;BME280;55747;51.998;4.466;2023-05-11T09:52:57;56587.41;;;-144.48;98.88
68758;BME280;55747;51.998;4.466;2023-05-11T09:55:23;56624.63;;;-144.48;98.06
68758;BME280;55747;51.998;4.466;2023-05-11T09:58:09;56616.38;;;-144.48;100.00
68758;BME280;55747;51.998;4.466;2023-05-11T10:00:38;56620.50;;;-144.48;100.00
68758;BME280;55747;51.998;4.466;2023-05-11T10:03:12;56647.38;;;-144.48;100.00
68758;BME280;55747;51.998;4.466;2023-05-11T10:05:37;56626.72;;;-144.48;100.00
68758;BME280;55747;51.998;4.466;2023-05-11T10:08:03;56637.03;;;-144.48;100.00
68758;BME280;55747;51.998;4.466;2023-05-11T10:10:31;56643.25;;;-144.48;100.00
68758;BME280;55747;51.998;4.466;2023-05-11T10:13:05;56632.91;;;-144.48;100.00
68758;BME280;55747;51.998;4.466;2023-05-11T10:15:31;56628.78;;;-144.48;100.00
68758;BME280;55747;51.998;4.466;2023-05-11T10:18:00;56649.44;;;-144.48;100.00
68758;BME280;55747;51.998;4.466;2023-05-11T10:20:26;56626.72;;;-144.48;100.00
68758;BME280;55747;51.998;4.466;2023-05-11T10:22:52;56641.19;;;-144.48;100.00
68758;BME280;55747;51.998;4.466;2023-05-11T10:25:20;56610.16;;;-144.48;100.00
68758;BME280;55747;51.998;4.466;2023-05-11T10:27:45;56666.00;;;-144.48;100.00
68758;BME280;55747;51.998;4.466;2023-05-11T10:30:11;56610.16;;;-144.48;100.00
68758;BME280;55747;51.998;4.466;2023-05-11T10:32:37;56614.31;;;-144.48;100.00
68758;BME280;55747;51.998;4.466;2023-05-11T10:35:03;56643.25;;;-144.48;100.00
68758;BME280;55747;51.998;4.466;2023-05-11T10:37:29;56637.03;;;-144.48;100.00
68758;BME280;55747;51.998;4.466;2023-05-11T10:39:55;56686.66;;;-144.48;100.00
68758;BME280;55747;51.998;4.466;2023-05-11T10:42:44;56626.72;;;-144.48;100.00
68758;BME280;55747;51.998;4.466;2023-05-11T10:53:02;56657.72;;;-144.48;100.00
68758;BME280;55747;51.998;4.466;2023-05-11T10:58:07;56678.41;;;-144.48;100.00
68758;BME280;55747;51.998;4.466;2023-05-11T11:03:11;56614.31;;;-144.48;100.00
68758;BME280;55747;51.998;4.466;2023-05-11T11:05:40;56628.78;;;-144.48;100.00
68758;BME280;55747;51.998;4.466;2023-05-11T11:08:08;56641.19;;;-144.48;100.00
68758;BME280;55747;51.998;4.466;2023-05-11T11:10:35;56614.31;;;-144.48;100.00
68758;BME280;55747;51.998;4.466;2023-05-11T11:13:10;56649.44;;;-144.48;100.00
68758;BME280;55747;51.998;4.466;2023-05-11T11:18:21;56628.78;;;-144.48;100.00
68758;BME280;55747;51.998;4.466;2023-05-11T11:20:47;56622.56;;;-144.48;100.00
68758;BME280;55747;51.998;4.466;2023-05-11T11:25:56;56661.84;;;-144.48;100.00
68758;BME280;55747;51.998;4.466;2023-05-11T11:28:21;56626.72;;;-144.48;100.00
68758;BME280;55747;51.998;4.466;2023-05-11T11:30:47;56653.59;;;-144.48;100.00
68758;BME280;55747;51.998;4.466;2023-05-11T11:38:18;56639.13;;;-144.48;100.00
68758;BME280;55747;51.998;4.466;2023-05-11T11:40:44;56649.44;;;-144.48;100.00
68758;BME280;55747;51.998;4.466;2023-05-11T11:45:39;56626.72;;;-144.48;100.00
68758;BME280;55747;51.998;4.466;2023-05-11T11:48:14;56626.72;;;-144.48;100.00
68758;BME280;55747;51.998;4.466;2023-05-11T11:50:40;56645.31;;;-144.48;100.00
68758;BME280;55747;51.998;4.466;2023-05-11T11:53:08;56655.66;;;-144.48;100.00
68758;BME280;55747;51.998;4.466;2023-05-11T11:55:47;56674.25;;;-144.48;100.00
68758;BME280;55747;51.998;4.466;2023-05-11T11:58:46;56649.44;;;-144.48;100.00
68758;BME280;55747;51.998;4.466;2023-05-11T12:01:00;56649.44;;;-144.48;100.00
68758;BME280;55747;51.998;4.466;2023-05-11T12:03:26;56620.50;;;-144.48;100.00
68758;BME280;55747;51.998;4.466;2023-05-11T12:05:51;56630.84;;;-144.48;100.00
68758;BME280;55747;51.998;4.466;2023-05-11T12:08:20;56684.59;;;-144.48;100.00
68758;BME280;55747;51.998;4.466;2023-05-11T12:10:52;56645.31;;;-144.48;100.00
68758;BME280;55747;51.998;4.466;2023-05-11T12:13:17;56603.97;;;-144.48;100.00
68758;BME280;55747;51.998;4.466;2023-05-11T12:15:43;56639.13;;;-144.48;100.00
68758;BME280;55747;51.998;4.466;2023-05-11T12:18:19;56624.63;;;-144.48;100.00
68758;BME280;55747;51.998;4.466;2023-05-11T12:20:44;56601.91;;;-144.48;100.00
68758;BME280;55747;51.998;4.466;2023-05-11T12:23:10;56616.38;;;-144.48;100.00
68758;BME280;55747;51.998;4.466;2023-05-11T12:25:36;56616.38;;;-144.48;100.00
68758;BME280;55747;51.998;4.466;2023-05-11T12:28:01;56591.56;;;-144.48;100.00
68758;BME280;55747;51.998;4.466;2023-05-11T12:30:27;56624.63;;;-144.48;100.00
68758;BME280;55747;51.998;4.466;2023-05-11T12:32:53;56568.81;;;-144.48;100.00
68758;BME280;55747;51.998;4.466;2023-05-11T12:35:22;56560.53;;;-144.48;100.00
68758;BME280;55747;51.998;4.466;2023-05-11T12:37:51;56572.94;;;-144.48;100.00
68758;BME280;55747;51.998;4.466;2023-05-11T12:40:16;56556.41;;;-144.48;100.00
68758;BME280;55747;51.998;4.466;2023-05-11T12:42:51;56570.88;;;-144.48;97.03
68758;BME280;55747;51.998;4.466;2023-05-11T12:45:17;56599.81;;;-144.48;93.89
68758;BME280;55747;51.998;4.466;2023-05-11T12:47:45;56589.50;;;-144.48;96.15
68758;BME280;55747;51.998;4.466;2023-05-11T12:50:11;56558.47;;;-144.48;96.82
68758;BME280;55747;51.998;4.466;2023-05-11T12:52:46;56566.75;;;-144.48;94.31
68758;BME280;55747;51.998;4.466;2023-05-11T12:55:13;56585.34;;;-144.48;92.19
68758;BME280;55747;51.998;4.466;2023-05-11T12:57:48;56564.69;;;-144.48;84.43
68758;BME280;55747;51.998;4.466;2023-05-11T13:00:36;56548.13;;;-144.48;84.74
68758;BME280;55747;51.998;4.466;2023-05-11T13:03:08;56558.47;;;-144.48;78.82
68758;BME280;55747;51.998;4.466;2023-05-11T13:05:37;56556.41;;;-144.48;71.12
68758;BME280;55747;51.998;4.466;2023-05-11T13:08:12;56544.00;;;-144.48;75.33
68758;BME280;55747;51.998;4.466;2023-05-11T13:10:40;56554.34;;;-144.48;79.56